sensor_id;sensor_type;location;lat;lon;timestamp;temperature;humidity
24146;DHT22;12308;50.948;4.706;2022-09-09T00:02:03;16.00;99.90
24146;DHT22;12308;50.948;4.706;2022-09-09T00:04:35;16.00;99.90
24146;DHT22;12308;50.948;4.706;2022-09-09T00:09:48;15.90;99.90
24146;DHT22;12308;50.948;4.706;2022-09-09T00:12:25;15.90;99.90
24146;DHT22;12308;50.948;4.706;2022-09-09T00:15:00;15.80;99.90
24146;DHT22;12308;50.948;4.706;2022-09-09T00:17:53;15.80;99.90
24146;DHT22;12308;50.948;4.706;2022-09-09T00:23:03;15.80;99.90
24146;DHT22;12308;50.948;4.706;2022-09-09T00:25:45;15.70;99.90
24146;DHT22;12308;50.948;4.706;2022-09-09T00:28:20;15.80;99.90
24146;DHT22;12308;50.948;4.706;2022-09-09T00:30:47;15.70;99.90
24146;DHT22;12308;50.948;4.706;2022-09-09T00:33:22;15.80;99.90
24146;DHT22;12308;50.948;4.706;2022-09-09T00:35:51;15.80;99.90
24146;DHT22;12308;50.948;4.706;2022-09-09T00:38:38;15.80;99.90
24146;DHT22;12308;50.948;4.706;2022-09-09T00:41:09;15.80;99.90
24146;DHT22;12308;50.948;4.706;2022-09-09T00:43:38;15.80;99.90
24146;DHT22;12308;50.948;4.706;2022-09-09T00:46:20;15.80;99.90
24146;DHT22;12308;50.948;4.706;2022-09-09T00:57:37;16.00;99.90
24146;DHT22;12308;50.948;4.706;2022-09-09T01:08:23;16.10;99.90
24146;DHT22;12308;50.948;4.706;2022-09-09T01:10:54;16.20;99.90
24146;DHT22;12308;50.948;4.706;2022-09-09T01:13:28;16.20;99.90
24146;DHT22;12308;50.948;4.706;2022-09-09T01:16:00;16.30;99.90
24146;DHT22;12308;50.948;4.706;2022-09-09T01:18:31;16.20;99.90
24146;DHT22;12308;50.948;4.706;2022-09-09T01:21:09;16.20;99.90
24146;DHT22;12308;50.948;4.706;2022-09-09T01:26:34;16.20;99.90
24146;DHT22;12308;50.948;4.706;2022-09-09T01:29:00;16.20;99.90
24146;DHT22;12308;50.948;4.706;2022-09-09T01:31:30;16.20;99.90
24146;DHT22;12308;50.948;4.706;2022-09-09T01:33:57;16.30;99.90
24146;DHT22;12308;50.948;4.706;2022-09-09T01:36:45;16.30;99.90
24146;DHT22;12308;50.948;4.706;2022-09-09T01:39:13;16.20;99.90
24146;DHT22;12308;50.948;4.706;2022-09-09T01:41:39;16.20;99.90
24146;DHT22;12308;50.948;4.706;2022-09-09T01:44:06;16.20;99.90
24146;DHT22;12308;50.948;4.706;2022-09-09T01:46:32;16.20;99.90
24146;DHT22;12308;50.948;4.706;2022-09-09T01:48:59;16.20;99.90
24146;DHT22;12308;50.948;4.706;2022-09-09T01:51:26;16.10;99.90
24146;DHT22;12308;50.948;4.706;2022-09-09T01:53:52;16.20;99.90
24146;DHT22;12308;50.948;4.706;2022-09-09T01:56:34;16.10;99.90
24146;DHT22;12308;50.948;4.706;2022-09-09T02:08:23;15.90;99.90
24146;DHT22;12308;50.948;4.706;2022-09-09T02:11:05;15.90;99.90
24146;DHT22;12308;50.948;4.706;2022-09-09T02:13:34;15.90;99.90
24146;DHT22;12308;50.948;4.706;2022-09-09T02:16:18;15.80;99.90
24146;DHT22;12308;50.948;4.706;2022-09-09T02:19:13;15.80;99.90
24146;DHT22;12308;50.948;4.706;2022-09-09T02:21:42;15.80;99.90
24146;DHT22;12308;50.948;4.706;2022-09-09T02:24:11;15.80;99.90
24146;DHT22;12308;50.948;4.706;2022-09-09T02:26:41;15.80;99.90
24146;DHT22;12308;50.948;4.706;2022-09-09T02:29:21;15.80;99.90
24146;DHT22;12308;50.948;4.706;2022-09-09T02:31:49;15.80;99.90
24146;DHT22;12308;50.948;4.706;2022-09-09T02:34:19;15.80;99.90
24146;DHT22;12308;50.948;4.706;2022-09-09T02:36:46;15.70;99.90
24146;DHT22;12308;50.948;4.706;2022-09-09T02:39:12;15.70;99.90
24146;DHT22;12308;50.948;4.706;2022-09-09T02:41:40;15.80;99.90
24146;DHT22;12308;50.948;4.706;2022-09-09T02:44:14;15.70;99.90
24146;DHT22;12308;50.948;4.706;2022-09-09T02:55:41;15.70;99.90
24146;DHT22;12308;50.948;4.706;2022-09-09T02:58:11;15.70;99.90
24146;DHT22;12308;50.948;4.706;2022-09-09T03:00:38;15.60;99.90
24146;DHT22;12308;50.948;4.706;2022-09-09T03:03:06;15.70;99.90
24146;DHT22;12308;50.948;4.706;2022-09-09T03:05:32;15.70;99.90
24146;DHT22;12308;50.948;4.706;2022-09-09T03:07:58;15.80;99.90
24146;DHT22;12308;50.948;4.706;2022-09-09T03:10:23;15.80;99.90
24146;DHT22;12308;50.948;4.706;2022-09-09T03:12:50;15.80;99.90
24146;DHT22;12308;50.948;4.706;2022-09-09T03:15:16;15.80;99.90
24146;DHT22;12308;50.948;4.706;2022-09-09T03:17:42;15.80;99.90
24146;DHT22;12308;50.948;4.706;2022-09-09T03:20:08;15.80;99.90
24146;DHT22;12308;50.948;4.706;2022-09-09T03:22:34;15.80;99.90
24146;DHT22;12308;50.948;4.706;2022-09-09T03:25:00;15.70;99.90
24146;DHT22;12308;50.948;4.706;2022-09-09T03:27:27;15.80;99.90
24146;DHT22;12308;50.948;4.706;2022-09-09T03:29:52;15.80;99.90
24146;DHT22;12308;50.948;4.706;2022-09-09T03:32:18;15.80;99.90
24146;DHT22;12308;50.948;4.706;2022-09-09T03:34:44;15.80;99.90
24146;DHT22;12308;50.948;4.706;2022-09-09T03:37:10;15.90;99.90
24146;DHT22;12308;50.948;4.706;2022-09-09T03:39:36;15.90;99.90
24146;DHT22;12308;50.948;4.706;2022-09-09T03:42:02;15.80;99.90
24146;DHT22;12308;50.948;4.706;2022-09-09T03:44:29;15.80;99.90
24146;DHT22;12308;50.948;4.706;2022-09-09T03:46:55;15.80;99.90
24146;DHT22;12308;50.948;4.706;2022-09-09T03:49:21;15.90;99.90
24146;DHT22;12308;50.948;4.706;2022-09-09T03:51:48;15.80;99.90
24146;DHT22;12308;50.948;4.706;2022-09-09T03:54:14;15.80;99.90
24146;DHT22;12308;50.948;4.706;2022-09-09T03:56:39;15.80;99.90
24146;DHT22;12308;50.948;4.706;2022-09-09T03:59:07;15.70;99.90
24146;DHT22;12308;50.948;4.706;2022-09-09T04:01:34;15.80;99.90
24146;DHT22;12308;50.948;4.706;2022-09-09T04:04:00;15.80;99.90
24146;DHT22;12308;50.948;4.706;2022-09-09T04:06:27;15.90;99.90
24146;DHT22;12308;50.948;4.706;2022-09-09T04:08:53;15.80;99.90
24146;DHT22;12308;50.948;4.706;2022-09-09T04:11:19;15.70;99.90
24146;DHT22;12308;50.948;4.706;2022-09-09T04:13:45;15.70;99.90
24146;DHT22;12308;50.948;4.706;2022-09-09T04:16:12;15.70;99.90
24146;DHT22;12308;50.948;4.706;2022-09-09T04:18:41;15.80;99.90
24146;DHT22;12308;50.948;4.706;2022-09-09T04:21:08;15.70;99.90
24146;DHT22;12308;50.948;4.706;2022-09-09T04:23:35;15.80;99.90
24146;DHT22;12308;50.948;4.706;2022-09-09T04:26:03;15.70;99.90
24146;DHT22;12308;50.948;4.706;2022-09-09T04:28:31;15.70;99.90
24146;DHT22;12308;50.948;4.706;2022-09-09T04:31:03;15.70;99.90
24146;DHT22;12308;50.948;4.706;2022-09-09T04:33:29;15.70;99.90
24146;DHT22;12308;50.948;4.706;2022-09-09T04:35:56;15.70;99.90
24146;DHT22;12308;50.948;4.706;2022-09-09T04:38:22;15.70;99.90
24146;DHT22;12308;50.948;4.706;2022-09-09T04:40:49;15.70;99.90
24146;DHT22;12308;50.948;4.706;2022-09-09T04:43:15;15.90;99.90
24146;DHT22;12308;50.948;4.706;2022-09-09T04:45:42;15.90;99.90
24146;DHT22;12308;50.948;4.706;2022-09-09T04:48:08;16.00;99.90
24146;DHT22;12308;50.948;4.706;2022-09-09T04:50:35;16.00;99.90
24146;DHT22;12308;50.948;4.706;2022-09-09T04:53:02;16.00;99.90
24146;DHT22;12308;50.948;4.706;2022-09-09T04:55:28;16.00;99.90
24146;DHT22;12308;50.948;4.706;2022-09-09T04:57:54;15.90;99.90
24146;DHT22;12308;50.948;4.706;2022-09-09T05:00:20;15.90;99.90
24146;DHT22;12308;50.948;4.706;2022-09-09T05:02:45;15.80;99.90
24146;DHT22;12308;50.948;4.706;2022-09-09T05:05:12;15.80;99.90
24146;DHT22;12308;50.948;4.706;2022-09-09T05:07:38;15.70;99.90
24146;DHT22;12308;50.948;4.706;2022-09-09T05:10:04;15.60;99.90
24146;DHT22;12308;50.948;4.706;2022-09-09T05:12:31;15.60;99.90
24146;DHT22;12308;50.948;4.706;2022-09-09T05:14:57;15.70;99.90
24146;DHT22;12308;50.948;4.706;2022-09-09T05:17:23;15.70;99.90
24146;DHT22;12308;50.948;4.706;2022-09-09T05:19:49;15.60;99.90
24146;DHT22;12308;50.948;4.706;2022-09-09T05:22:19;15.60;99.90
24146;DHT22;12308;50.948;4.706;2022-09-09T05:24:45;15.70;99.90
24146;DHT22;12308;50.948;4.706;2022-09-09T05:27:11;15.70;99.90
24146;DHT22;12308;50.948;4.706;2022-09-09T05:29:38;15.70;99.90
24146;DHT22;12308;50.948;4.706;2022-09-09T05:32:04;15.80;99.90
24146;DHT22;12308;50.948;4.706;2022-09-09T05:34:30;15.80;99.90
24146;DHT22;12308;50.948;4.706;2022-09-09T05:36:56;15.90;99.90
24146;DHT22;12308;50.948;4.706;2022-09-09T05:39:21;15.90;99.90
24146;DHT22;12308;50.948;4.706;2022-09-09T05:41:47;15.90;99.90
24146;DHT22;12308;50.948;4.706;2022-09-09T05:44:12;15.90;99.90
24146;DHT22;12308;50.948;4.706;2022-09-09T05:46:39;16.00;99.90
24146;DHT22;12308;50.948;4.706;2022-09-09T05:49:05;16.10;99.90
24146;DHT22;12308;50.948;4.706;2022-09-09T05:51:31;16.20;99.90
24146;DHT22;12308;50.948;4.706;2022-09-09T05:53:57;16.30;99.90
24146;DHT22;12308;50.948;4.706;2022-09-09T05:56:27;16.40;99.90
24146;DHT22;12308;50.948;4.706;2022-09-09T05:58:54;16.50;99.90
24146;DHT22;12308;50.948;4.706;2022-09-09T06:03:50;16.70;99.90
24146;DHT22;12308;50.948;4.706;2022-09-09T06:06:21;16.90;99.90
24146;DHT22;12308;50.948;4.706;2022-09-09T06:08:49;17.10;99.90
24146;DHT22;12308;50.948;4.706;2022-09-09T06:11:27;17.20;99.90
24146;DHT22;12308;50.948;4.706;2022-09-09T06:13:57;17.30;99.90
24146;DHT22;12308;50.948;4.706;2022-09-09T06:16:24;17.20;99.90
24146;DHT22;12308;50.948;4.706;2022-09-09T06:18:52;17.00;99.90
24146;DHT22;12308;50.948;4.706;2022-09-09T06:21:20;17.00;99.90
24146;DHT22;12308;50.948;4.706;2022-09-09T06:23:47;17.00;99.90
24146;DHT22;12308;50.948;4.706;2022-09-09T06:26:18;16.90;99.90
24146;DHT22;12308;50.948;4.706;2022-09-09T06:28:49;16.90;99.90
24146;DHT22;12308;50.948;4.706;2022-09-09T06:31:17;16.90;99.90
24146;DHT22;12308;50.948;4.706;2022-09-09T06:33:43;17.00;99.90
24146;DHT22;12308;50.948;4.706;2022-09-09T06:36:15;17.20;99.90
24146;DHT22;12308;50.948;4.706;2022-09-09T06:38:42;17.20;99.90
24146;DHT22;12308;50.948;4.706;2022-09-09T06:41:09;17.30;99.90
24146;DHT22;12308;50.948;4.706;2022-09-09T06:43:35;17.10;99.90
24146;DHT22;12308;50.948;4.706;2022-09-09T06:46:11;17.10;99.90
24146;DHT22;12308;50.948;4.706;2022-09-09T06:48:39;17.00;99.90
24146;DHT22;12308;50.948;4.706;2022-09-09T06:53:36;17.20;99.90
24146;DHT22;12308;50.948;4.706;2022-09-09T06:56:13;17.40;99.90
24146;DHT22;12308;50.948;4.706;2022-09-09T06:58:43;17.50;99.90
24146;DHT22;12308;50.948;4.706;2022-09-09T07:01:11;17.70;99.90
24146;DHT22;12308;50.948;4.706;2022-09-09T07:03:38;17.60;99.90
24146;DHT22;12308;50.948;4.706;2022-09-09T07:06:05;17.60;99.90
24146;DHT22;12308;50.948;4.706;2022-09-09T07:08:31;17.80;99.90
24146;DHT22;12308;50.948;4.706;2022-09-09T07:11:04;18.00;99.90
24146;DHT22;12308;50.948;4.706;2022-09-09T07:13:30;18.00;99.90
24146;DHT22;12308;50.948;4.706;2022-09-09T07:16:04;17.80;99.90
24146;DHT22;12308;50.948;4.706;2022-09-09T07:18:29;17.80;99.90
24146;DHT22;12308;50.948;4.706;2022-09-09T07:20:56;17.80;99.90
24146;DHT22;12308;50.948;4.706;2022-09-09T07:23:23;17.90;99.90
24146;DHT22;12308;50.948;4.706;2022-09-09T07:25:49;17.80;99.90
24146;DHT22;12308;50.948;4.706;2022-09-09T07:28:16;17.80;99.90
24146;DHT22;12308;50.948;4.706;2022-09-09T07:30:42;17.90;99.90
24146;DHT22;12308;50.948;4.706;2022-09-09T07:33:08;17.90;99.90
24146;DHT22;12308;50.948;4.706;2022-09-09T07:35:37;17.90;99.90
24146;DHT22;12308;50.948;4.706;2022-09-09T07:38:03;17.90;99.90
24146;DHT22;12308;50.948;4.706;2022-09-09T07:40:33;18.00;99.90
24146;DHT22;12308;50.948;4.706;2022-09-09T07:42:59;17.90;99.90
24146;DHT22;12308;50.948;4.706;2022-09-09T07:45:25;18.00;99.90
24146;DHT22;12308;50.948;4.706;2022-09-09T07:47:54;18.00;99.90
24146;DHT22;12308;50.948;4.706;2022-09-09T07:50:23;17.90;99.90
24146;DHT22;12308;50.948;4.706;2022-09-09T07:52:50;18.00;99.90
24146;DHT22;12308;50.948;4.706;2022-09-09T07:55:16;18.10;99.90
24146;DHT22;12308;50.948;4.706;2022-09-09T07:57:41;18.10;99.90
24146;DHT22;12308;50.948;4.706;2022-09-09T08:00:08;18.10;99.90
24146;DHT22;12308;50.948;4.706;2022-09-09T08:02:33;18.30;99.90
24146;DHT22;12308;50.948;4.706;2022-09-09T08:04:59;18.20;99.90
24146;DHT22;12308;50.948;4.706;2022-09-09T08:07:25;18.10;99.90
24146;DHT22;12308;50.948;4.706;2022-09-09T08:09:51;18.20;99.90
24146;DHT22;12308;50.948;4.706;2022-09-09T08:12:17;18.30;99.90
24146;DHT22;12308;50.948;4.706;2022-09-09T08:14:43;18.30;99.90
24146;DHT22;12308;50.948;4.706;2022-09-09T08:17:09;18.40;99.90
24146;DHT22;12308;50.948;4.706;2022-09-09T08:19:35;18.50;99.90
24146;DHT22;12308;50.948;4.706;2022-09-09T08:22:02;18.60;99.90
24146;DHT22;12308;50.948;4.706;2022-09-09T08:24:28;18.70;99.90
24146;DHT22;12308;50.948;4.706;2022-09-09T08:26:54;18.60;99.90
24146;DHT22;12308;50.948;4.706;2022-09-09T08:29:20;18.70;99.90
24146;DHT22;12308;50.948;4.706;2022-09-09T08:31:47;19.00;99.90
24146;DHT22;12308;50.948;4.706;2022-09-09T08:34:14;19.20;99.90
24146;DHT22;12308;50.948;4.706;2022-09-09T08:36:42;19.30;99.90
24146;DHT22;12308;50.948;4.706;2022-09-09T08:39:09;19.30;99.90
24146;DHT22;12308;50.948;4.706;2022-09-09T08:45:00;19.40;99.90
24146;DHT22;12308;50.948;4.706;2022-09-09T08:57:50;19.00;99.90
24146;DHT22;12308;50.948;4.706;2022-09-09T09:00:17;19.00;99.90
24146;DHT22;12308;50.948;4.706;2022-09-09T09:05:39;19.10;99.90
24146;DHT22;12308;50.948;4.706;2022-09-09T09:08:50;19.00;99.90
24146;DHT22;12308;50.948;4.706;2022-09-09T09:10:56;19.10;99.90
24146;DHT22;12308;50.948;4.706;2022-09-09T09:16:26;18.90;99.90
24146;DHT22;12308;50.948;4.706;2022-09-09T09:18:53;18.80;99.90
24146;DHT22;12308;50.948;4.706;2022-09-09T09:21:36;18.80;99.90
24146;DHT22;12308;50.948;4.706;2022-09-09T09:24:09;18.70;99.90
24146;DHT22;12308;50.948;4.706;2022-09-09T09:26:37;18.70;99.90
24146;DHT22;12308;50.948;4.706;2022-09-09T09:29:14;18.90;99.90
24146;DHT22;12308;50.948;4.706;2022-09-09T09:31:50;19.10;99.90
24146;DHT22;12308;50.948;4.706;2022-09-09T09:34:17;19.00;99.90
24146;DHT22;12308;50.948;4.706;2022-09-09T09:37:15;19.20;99.90
24146;DHT22;12308;50.948;4.706;2022-09-09T09:39:44;19.30;99.90
24146;DHT22;12308;50.948;4.706;2022-09-09T09:42:12;19.30;99.90
24146;DHT22;12308;50.948;4.706;2022-09-09T09:44:40;19.20;99.90
24146;DHT22;12308;50.948;4.706;2022-09-09T09:49:33;19.30;99.90
24146;DHT22;12308;50.948;4.706;2022-09-09T09:52:03;19.20;99.90
24146;DHT22;12308;50.948;4.706;2022-09-09T09:54:37;19.20;99.90
24146;DHT22;12308;50.948;4.706;2022-09-09T09:57:15;19.30;99.90
24146;DHT22;12308;50.948;4.706;2022-09-09T09:59:42;19.50;99.90
24146;DHT22;12308;50.948;4.706;2022-09-09T10:02:23;19.40;99.90
24146;DHT22;12308;50.948;4.706;2022-09-09T10:05:04;19.40;99.90
24146;DHT22;12308;50.948;4.706;2022-09-09T10:07:30;19.60;99.90
24146;DHT22;12308;50.948;4.706;2022-09-09T10:09:57;19.50;99.90
24146;DHT22;12308;50.948;4.706;2022-09-09T10:13:06;19.40;99.90
24146;DHT22;12308;50.948;4.706;2022-09-09T10:15:48;19.40;99.90
24146;DHT22;12308;50.948;4.706;2022-09-09T10:24:07;19.10;99.90
24146;DHT22;12308;50.948;4.706;2022-09-09T10:42:56;19.10;99.90
24146;DHT22;12308;50.948;4.706;2022-09-09T10:45:44;19.20;99.90
24146;DHT22;12308;50.948;4.706;2022-09-09T10:50:58;19.50;99.90
24146;DHT22;12308;50.948;4.706;2022-09-09T10:56:30;20.20;99.90
24146;DHT22;12308;50.948;4.706;2022-09-09T10:59:04;20.60;99.90
24146;DHT22;12308;50.948;4.706;2022-09-09T11:01:41;20.60;99.90
24146;DHT22;12308;50.948;4.706;2022-09-09T11:04:39;20.60;99.90
24146;DHT22;12308;50.948;4.706;2022-09-09T11:07:08;20.50;99.90
24146;DHT22;12308;50.948;4.706;2022-09-09T11:09:47;20.40;99.90
24146;DHT22;12308;50.948;4.706;2022-09-09T11:12:19;20.60;99.90
24146;DHT22;12308;50.948;4.706;2022-09-09T11:15:01;20.60;99.90
24146;DHT22;12308;50.948;4.706;2022-09-09T11:17:50;20.60;99.90
24146;DHT22;12308;50.948;4.706;2022-09-09T11:20:18;20.40;99.90
24146;DHT22;12308;50.948;4.706;2022-09-09T11:22:56;20.50;99.90
24146;DHT22;12308;50.948;4.706;2022-09-09T11:25:41;20.80;99.90
24146;DHT22;12308;50.948;4.706;2022-09-09T11:36:23;20.60;99.90
24146;DHT22;12308;50.948;4.706;2022-09-09T11:38:52;20.80;99.90
24146;DHT22;12308;50.948;4.706;2022-09-09T11:41:19;20.80;99.90
24146;DHT22;12308;50.948;4.706;2022-09-09T11:43:52;21.00;99.90
24146;DHT22;12308;50.948;4.706;2022-09-09T11:46:20;21.10;99.90
24146;DHT22;12308;50.948;4.706;2022-09-09T11:49:00;21.10;99.90
24146;DHT22;12308;50.948;4.706;2022-09-09T11:51:27;21.10;99.90
24146;DHT22;12308;50.948;4.706;2022-09-09T11:56:42;21.00;99.90
24146;DHT22;12308;50.948;4.706;2022-09-09T11:59:26;20.80;99.90
24146;DHT22;12308;50.948;4.706;2022-09-09T12:06:56;20.40;99.90
24146;DHT22;12308;50.948;4.706;2022-09-09T12:09:45;20.30;99.90
24146;DHT22;12308;50.948;4.706;2022-09-09T12:17:29;20.40;99.90
24146;DHT22;12308;50.948;4.706;2022-09-09T12:20:13;20.50;99.90
24146;DHT22;12308;50.948;4.706;2022-09-09T12:28:59;20.60;99.90
24146;DHT22;12308;50.948;4.706;2022-09-09T12:34:40;20.40;99.90
24146;DHT22;12308;50.948;4.706;2022-09-09T12:37:29;20.50;99.90
24146;DHT22;12308;50.948;4.706;2022-09-09T12:39:58;20.70;99.90
24146;DHT22;12308;50.948;4.706;2022-09-09T12:42:25;20.60;99.90
24146;DHT22;12308;50.948;4.706;2022-09-09T12:44:56;20.50;99.90
24146;DHT22;12308;50.948;4.706;2022-09-09T12:50:26;20.70;99.90
24146;DHT22;12308;50.948;4.706;2022-09-09T12:53:08;20.70;99.90
24146;DHT22;12308;50.948;4.706;2022-09-09T12:55:37;20.60;99.90
24146;DHT22;12308;50.948;4.706;2022-09-09T12:58:05;20.30;99.90
24146;DHT22;12308;50.948;4.706;2022-09-09T13:00:33;20.60;99.90
24146;DHT22;12308;50.948;4.706;2022-09-09T13:03:17;20.80;99.90
24146;DHT22;12308;50.948;4.706;2022-09-09T13:05:43;21.10;99.90
24146;DHT22;12308;50.948;4.706;2022-09-09T13:08:11;21.20;99.90
24146;DHT22;12308;50.948;4.706;2022-09-09T13:13:17;20.80;99.90
24146;DHT22;12308;50.948;4.706;2022-09-09T13:15:54;20.80;99.90
24146;DHT22;12308;50.948;4.706;2022-09-09T13:18:40;21.00;99.90
24146;DHT22;12308;50.948;4.706;2022-09-09T13:21:07;21.00;99.90
24146;DHT22;12308;50.948;4.706;2022-09-09T13:23:36;21.10;99.90
24146;DHT22;12308;50.948;4.706;2022-09-09T13:26:24;21.30;99.90
24146;DHT22;12308;50.948;4.706;2022-09-09T13:28:51;21.80;99.90
24146;DHT22;12308;50.948;4.706;2022-09-09T13:31:30;21.80;99.90
24146;DHT22;12308;50.948;4.706;2022-09-09T13:33:56;21.80;99.90
24146;DHT22;12308;50.948;4.706;2022-09-09T13:36:29;21.90;99.90
24146;DHT22;12308;50.948;4.706;2022-09-09T13:38:57;21.80;99.90
24146;DHT22;12308;50.948;4.706;2022-09-09T13:43:56;21.50;99.90
24146;DHT22;12308;50.948;4.706;2022-09-09T13:46:33;21.50;99.90
24146;DHT22;12308;50.948;4.706;2022-09-09T13:49:22;21.30;99.90
24146;DHT22;12308;50.948;4.706;2022-09-09T13:51:49;21.20;99.90
24146;DHT22;12308;50.948;4.706;2022-09-09T13:54:17;21.20;99.90
24146;DHT22;12308;50.948;4.706;2022-09-09T13:56:44;21.20;99.90
24146;DHT22;12308;50.948;4.706;2022-09-09T13:59:15;21.30;99.90
24146;DHT22;12308;50.948;4.706;2022-09-09T14:01:41;21.20;99.90
24146;DHT22;12308;50.948;4.706;2022-09-09T14:04:07;21.00;99.90
24146;DHT22;12308;50.948;4.706;2022-09-09T14:06:35;20.90;99.90
24146;DHT22;12308;50.948;4.706;2022-09-09T14:09:06;21.00;99.90
24146;DHT22;12308;50.948;4.706;2022-09-09T14:11:33;21.20;99.90
24146;DHT22;12308;50.948;4.706;2022-09-09T14:13:58;21.40;99.90
24146;DHT22;12308;50.948;4.706;2022-09-09T14:16:26;21.60;99.90
24146;DHT22;12308;50.948;4.706;2022-09-09T14:18:53;22.00;99.90
24146;DHT22;12308;50.948;4.706;2022-09-09T14:21:18;22.00;99.90
24146;DHT22;12308;50.948;4.706;2022-09-09T14:23:44;22.10;99.90
24146;DHT22;12308;50.948;4.706;2022-09-09T14:26:10;22.00;99.90
24146;DHT22;12308;50.948;4.706;2022-09-09T14:28:36;22.00;99.90
24146;DHT22;12308;50.948;4.706;2022-09-09T14:31:03;22.10;99.90
24146;DHT22;12308;50.948;4.706;2022-09-09T14:33:30;22.20;99.90
24146;DHT22;12308;50.948;4.706;2022-09-09T14:36:00;22.40;99.90
24146;DHT22;12308;50.948;4.706;2022-09-09T14:38:29;22.40;99.90
24146;DHT22;12308;50.948;4.706;2022-09-09T14:40:56;22.00;99.90
24146;DHT22;12308;50.948;4.706;2022-09-09T14:43:22;22.00;99.90
24146;DHT22;12308;50.948;4.706;2022-09-09T14:45:47;21.70;99.90
24146;DHT22;12308;50.948;4.706;2022-09-09T14:48:17;21.30;99.90
24146;DHT22;12308;50.948;4.706;2022-09-09T14:50:43;21.40;99.90
24146;DHT22;12308;50.948;4.706;2022-09-09T14:53:09;21.40;99.90
24146;DHT22;12308;50.948;4.706;2022-09-09T14:55:35;21.40;99.90
24146;DHT22;12308;50.948;4.706;2022-09-09T14:58:01;21.60;99.90
24146;DHT22;12308;50.948;4.706;2022-09-09T15:00:27;21.90;99.90
24146;DHT22;12308;50.948;4.706;2022-09-09T15:02:53;22.00;99.90
24146;DHT22;12308;50.948;4.706;2022-09-09T15:05:19;22.00;99.90
24146;DHT22;12308;50.948;4.706;2022-09-09T15:07:45;22.10;99.90
24146;DHT22;12308;50.948;4.706;2022-09-09T15:10:11;22.20;99.90
24146;DHT22;12308;50.948;4.706;2022-09-09T15:12:37;22.00;99.90
24146;DHT22;12308;50.948;4.706;2022-09-09T15:15:04;21.90;99.90
24146;DHT22;12308;50.948;4.706;2022-09-09T15:17:30;21.80;99.90
24146;DHT22;12308;50.948;4.706;2022-09-09T15:19:56;21.80;99.90
24146;DHT22;12308;50.948;4.706;2022-09-09T15:22:21;21.90;99.90
24146;DHT22;12308;50.948;4.706;2022-09-09T15:24:47;22.00;99.90
24146;DHT22;12308;50.948;4.706;2022-09-09T15:27:13;22.10;99.90
24146;DHT22;12308;50.948;4.706;2022-09-09T15:29:40;22.00;99.90
24146;DHT22;12308;50.948;4.706;2022-09-09T15:32:07;21.90;99.90
24146;DHT22;12308;50.948;4.706;2022-09-09T15:34:33;21.80;99.90
24146;DHT22;12308;50.948;4.706;2022-09-09T15:36:59;21.80;99.90
24146;DHT22;12308;50.948;4.706;2022-09-09T15:39:25;21.80;99.90
24146;DHT22;12308;50.948;4.706;2022-09-09T15:41:51;22.00;99.90
24146;DHT22;12308;50.948;4.706;2022-09-09T15:44:17;22.10;99.90
24146;DHT22;12308;50.948;4.706;2022-09-09T15:46:45;21.90;99.90
24146;DHT22;12308;50.948;4.706;2022-09-09T15:51:38;22.00;99.90
24146;DHT22;12308;50.948;4.706;2022-09-09T15:54:05;22.00;99.90
24146;DHT22;12308;50.948;4.706;2022-09-09T15:56:31;22.10;99.90
24146;DHT22;12308;50.948;4.706;2022-09-09T15:58:59;22.10;99.90
24146;DHT22;12308;50.948;4.706;2022-09-09T16:01:26;21.90;99.90
24146;DHT22;12308;50.948;4.706;2022-09-09T16:03:53;21.90;99.90
24146;DHT22;12308;50.948;4.706;2022-09-09T16:06:21;21.90;99.90
24146;DHT22;12308;50.948;4.706;2022-09-09T16:08:49;21.60;99.90
24146;DHT22;12308;50.948;4.706;2022-09-09T16:11:20;21.50;99.90
24146;DHT22;12308;50.948;4.706;2022-09-09T16:13:48;21.40;99.90
24146;DHT22;12308;50.948;4.706;2022-09-09T16:16:15;21.40;99.90
24146;DHT22;12308;50.948;4.706;2022-09-09T16:18:46;21.40;99.90
24146;DHT22;12308;50.948;4.706;2022-09-09T16:21:21;21.50;99.90
24146;DHT22;12308;50.948;4.706;2022-09-09T16:23:49;21.40;99.90
24146;DHT22;12308;50.948;4.706;2022-09-09T16:26:16;21.30;99.90
24146;DHT22;12308;50.948;4.706;2022-09-09T16:28:42;21.30;99.90
24146;DHT22;12308;50.948;4.706;2022-09-09T16:31:11;21.40;99.90
24146;DHT22;12308;50.948;4.706;2022-09-09T16:33:39;21.30;99.90
24146;DHT22;12308;50.948;4.706;2022-09-09T16:36:10;21.20;99.90
24146;DHT22;12308;50.948;4.706;2022-09-09T16:38:36;21.10;99.90
24146;DHT22;12308;50.948;4.706;2022-09-09T16:41:03;21.10;99.90
24146;DHT22;12308;50.948;4.706;2022-09-09T16:43:34;21.00;99.90
24146;DHT22;12308;50.948;4.706;2022-09-09T16:46:02;21.00;99.90
24146;DHT22;12308;50.948;4.706;2022-09-09T16:48:31;20.80;99.90
24146;DHT22;12308;50.948;4.706;2022-09-09T16:51:22;20.70;99.90
24146;DHT22;12308;50.948;4.706;2022-09-09T16:53:52;20.60;99.90
24146;DHT22;12308;50.948;4.706;2022-09-09T16:56:21;20.70;99.90
24146;DHT22;12308;50.948;4.706;2022-09-09T16:58:51;20.60;99.90
24146;DHT22;12308;50.948;4.706;2022-09-09T17:01:17;20.60;99.90
24146;DHT22;12308;50.948;4.706;2022-09-09T17:03:43;20.60;99.90
24146;DHT22;12308;50.948;4.706;2022-09-09T17:06:11;20.50;99.90
24146;DHT22;12308;50.948;4.706;2022-09-09T17:08:38;20.40;99.90
24146;DHT22;12308;50.948;4.706;2022-09-09T17:11:14;20.20;99.90
24146;DHT22;12308;50.948;4.706;2022-09-09T17:13:47;20.20;99.90
24146;DHT22;12308;50.948;4.706;2022-09-09T17:16:15;20.10;99.90
24146;DHT22;12308;50.948;4.706;2022-09-09T17:18:41;20.10;99.90
24146;DHT22;12308;50.948;4.706;2022-09-09T17:21:12;20.30;99.90
24146;DHT22;12308;50.948;4.706;2022-09-09T17:23:40;20.40;99.90
24146;DHT22;12308;50.948;4.706;2022-09-09T17:26:07;20.60;99.90
24146;DHT22;12308;50.948;4.706;2022-09-09T17:28:34;20.60;99.90
24146;DHT22;12308;50.948;4.706;2022-09-09T17:31:01;20.80;99.90
24146;DHT22;12308;50.948;4.706;2022-09-09T17:33:35;20.80;99.90
24146;DHT22;12308;50.948;4.706;2022-09-09T17:36:08;20.70;99.90
24146;DHT22;12308;50.948;4.706;2022-09-09T17:38:33;20.70;99.90
24146;DHT22;12308;50.948;4.706;2022-09-09T17:41:07;20.80;99.90
24146;DHT22;12308;50.948;4.706;2022-09-09T17:43:34;20.80;99.90
24146;DHT22;12308;50.948;4.706;2022-09-09T17:46:07;20.50;99.90
24146;DHT22;12308;50.948;4.706;2022-09-09T17:48:34;20.50;99.90
24146;DHT22;12308;50.948;4.706;2022-09-09T17:51:03;20.50;99.90
24146;DHT22;12308;50.948;4.706;2022-09-09T17:53:29;20.30;99.90
24146;DHT22;12308;50.948;4.706;2022-09-09T17:56:04;20.20;99.90
24146;DHT22;12308;50.948;4.706;2022-09-09T17:58:31;20.10;99.90
24146;DHT22;12308;50.948;4.706;2022-09-09T18:01:09;20.00;99.90
24146;DHT22;12308;50.948;4.706;2022-09-09T18:03:35;20.00;99.90
24146;DHT22;12308;50.948;4.706;2022-09-09T18:06:06;19.90;99.90